<?xml version="1.0" encoding="UTF-8" standalone="no" ?>
<gpx xmlns="http://www.topografix.com/GPX/1/1" xmlns:xsi="http://www.w3.org/2001/XMLSchema-instance" xsi:schemaLocation="http://www.topografix.com/GPX/1/1 http://www.topografix.com/GPX/1/1/gpx.xsd" version="1.1" creator="VisuGPX - https://www.visugpx.com">
  <metadata>
    <name>Rando LN</name>
  </metadata>
  <trk>
    <name><![CDATA[Decazeville]]></name>
    <extensions>
      <line xmlns="http://www.topografix.com/GPX/gpx_style/0/2">
        <color>00d9ff</color>
        <width>4</width>
      </line>
    </extensions>
    <trkseg>
      <trkpt lat="44.61706" lon="2.19267">
        <ele>396.846</ele>
        <time>2015-08-05T11:24:27Z</time>
      </trkpt>
      <trkpt lat="44.61706" lon="2.19267">
        <ele>396.846</ele>
        <time>2015-08-05T11:24:27Z</time>
      </trkpt>
      <trkpt lat="44.61706" lon="2.19267">
        <ele>396.846</ele>
        <time>2015-08-05T11:24:27Z</time>
      </trkpt>
      <trkpt lat="44.61706" lon="2.19267">
        <ele>396.846</ele>
        <time>2015-08-05T11:24:27Z</time>
      </trkpt>
      <trkpt lat="44.61706" lon="2.19267">
        <ele>396.846</ele>
        <time>2015-08-05T11:24:27Z</time>
      </trkpt>
      <trkpt lat="44.61694" lon="2.19362">
        <ele>402.218</ele>
        <time>2015-08-05T11:24:47Z</time>
      </trkpt>
      <trkpt lat="44.61699" lon="2.1946">
        <ele>404.69</ele>
        <time>2015-08-05T11:25:07Z</time>
      </trkpt>
      <trkpt lat="44.61694" lon="2.19553">
        <ele>405.231</ele>
        <time>2015-08-05T11:25:27Z</time>
      </trkpt>
      <trkpt lat="44.61674" lon="2.19625">
        <ele>403.347</ele>
        <time>2015-08-05T11:25:47Z</time>
      </trkpt>
      <trkpt lat="44.61638" lon="2.19665">
        <ele>410.169</ele>
        <time>2015-08-05T11:26:07Z</time>
      </trkpt>
      <trkpt lat="44.61631" lon="2.19681">
        <ele>410.372</ele>
        <time>2015-08-05T11:26:27Z</time>
      </trkpt>
      <trkpt lat="44.61641" lon="2.19725">
        <ele>406.413</ele>
        <time>2015-08-05T11:26:47Z</time>
      </trkpt>
      <trkpt lat="44.61637" lon="2.19764">
        <ele>405.214</ele>
        <time>2015-08-05T11:27:07Z</time>
      </trkpt>
      <trkpt lat="44.61602" lon="2.19837">
        <ele>402.108</ele>
        <time>2015-08-05T11:27:27Z</time>
      </trkpt>
      <trkpt lat="44.61596" lon="2.19865">
        <ele>400.913</ele>
        <time>2015-08-05T11:27:47Z</time>
      </trkpt>
      <trkpt lat="44.61578" lon="2.19898">
        <ele>402.948</ele>
        <time>2015-08-05T11:28:07Z</time>
      </trkpt>
      <trkpt lat="44.61581" lon="2.19922">
        <ele>403.178</ele>
        <time>2015-08-05T11:28:27Z</time>
      </trkpt>
      <trkpt lat="44.61636" lon="2.19959">
        <ele>399.88</ele>
        <time>2015-08-05T11:28:47Z</time>
      </trkpt>
      <trkpt lat="44.61659" lon="2.19992">
        <ele>396.762</ele>
        <time>2015-08-05T11:29:07Z</time>
      </trkpt>
      <trkpt lat="44.61683" lon="2.20117">
        <ele>400.063</ele>
        <time>2015-08-05T11:29:27Z</time>
      </trkpt>
      <trkpt lat="44.61681" lon="2.20202">
        <ele>397.979</ele>
        <time>2015-08-05T11:29:47Z</time>
      </trkpt>
      <trkpt lat="44.61662" lon="2.20483">
        <ele>395.291</ele>
        <time>2015-08-05T11:30:07Z</time>
      </trkpt>
      <trkpt lat="44.61591" lon="2.20693">
        <ele>384.976</ele>
        <time>2015-08-05T11:30:27Z</time>
      </trkpt>
      <trkpt lat="44.61572" lon="2.20804">
        <ele>374.39</ele>
        <time>2015-08-05T11:30:47Z</time>
      </trkpt>
      <trkpt lat="44.61544" lon="2.20866">
        <ele>368.319</ele>
        <time>2015-08-05T11:31:07Z</time>
      </trkpt>
      <trkpt lat="44.61496" lon="2.20944">
        <ele>362.208</ele>
        <time>2015-08-05T11:31:27Z</time>
      </trkpt>
      <trkpt lat="44.61483" lon="2.21015">
        <ele>358.853</ele>
        <time>2015-08-05T11:31:47Z</time>
      </trkpt>
      <trkpt lat="44.61422" lon="2.2114">
        <ele>348.138</ele>
        <time>2015-08-05T11:32:07Z</time>
      </trkpt>
      <trkpt lat="44.61404" lon="2.21204">
        <ele>346.158</ele>
        <time>2015-08-05T11:32:27Z</time>
      </trkpt>
      <trkpt lat="44.6139" lon="2.21271">
        <ele>341.32</ele>
        <time>2015-08-05T11:32:47Z</time>
      </trkpt>
      <trkpt lat="44.61372" lon="2.2133">
        <ele>338.112</ele>
        <time>2020-03-06T18:59:57Z</time>
      </trkpt>
      <trkpt lat="44.61308" lon="2.21428">
        <ele>335.233</ele>
        <time>2020-03-06T19:00:17Z</time>
      </trkpt>
      <trkpt lat="44.61315" lon="2.21504">
        <ele>333.179</ele>
        <time>2020-03-06T19:00:37Z</time>
      </trkpt>
      <trkpt lat="44.61317" lon="2.21584">
        <ele>328.741</ele>
        <time>2020-03-06T19:00:57Z</time>
      </trkpt>
      <trkpt lat="44.61293" lon="2.21644">
        <ele>329.192</ele>
        <time>2015-08-05T11:35:07Z</time>
      </trkpt>
      <trkpt lat="44.61276" lon="2.21767">
        <ele>330.273</ele>
        <time>2015-08-05T11:35:27Z</time>
      </trkpt>
      <trkpt lat="44.61263" lon="2.21792">
        <ele>328.72</ele>
        <time>2015-08-05T11:35:47Z</time>
      </trkpt>
      <trkpt lat="44.61185" lon="2.21901">
        <ele>324.708</ele>
        <time>2015-08-05T11:36:07Z</time>
      </trkpt>
      <trkpt lat="44.61038" lon="2.22167">
        <ele>321.445</ele>
        <time>2015-08-05T11:36:27Z</time>
      </trkpt>
      <trkpt lat="44.61027" lon="2.22245">
        <ele>322.23</ele>
        <time>2015-08-05T11:36:47Z</time>
      </trkpt>
      <trkpt lat="44.61021" lon="2.22318">
        <ele>320.09</ele>
        <time>2015-08-05T11:37:07Z</time>
      </trkpt>
      <trkpt lat="44.6101" lon="2.22346">
        <ele>319.062</ele>
        <time>2015-08-05T11:37:27Z</time>
      </trkpt>
      <trkpt lat="44.61001" lon="2.22359">
        <ele>319.314</ele>
        <time>2015-08-05T11:37:47Z</time>
      </trkpt>
      <trkpt lat="44.60954" lon="2.22375">
        <ele>325.335</ele>
        <time>2015-08-05T11:38:07Z</time>
      </trkpt>
      <trkpt lat="44.60872" lon="2.22429">
        <ele>322.841</ele>
        <time>2015-08-05T11:38:27Z</time>
      </trkpt>
      <trkpt lat="44.60624" lon="2.22529">
        <ele>331.573</ele>
        <time>2015-08-05T11:38:47Z</time>
      </trkpt>
      <trkpt lat="44.60537" lon="2.22547">
        <ele>332.538</ele>
        <time>2015-08-05T11:39:07Z</time>
      </trkpt>
      <trkpt lat="44.60537" lon="2.22586">
        <ele>334.77</ele>
        <time>2015-08-05T11:39:27Z</time>
      </trkpt>
      <trkpt lat="44.60496" lon="2.22611">
        <ele>333.317</ele>
        <time>2015-08-05T11:39:47Z</time>
      </trkpt>
      <trkpt lat="44.60454" lon="2.22649">
        <ele>328.708</ele>
        <time>2015-08-05T11:40:07Z</time>
      </trkpt>
      <trkpt lat="44.60368" lon="2.22653">
        <ele>320.779</ele>
        <time>2015-08-05T11:40:27Z</time>
      </trkpt>
      <trkpt lat="44.60299" lon="2.22677">
        <ele>309.984</ele>
        <time>2015-08-05T11:40:47Z</time>
      </trkpt>
      <trkpt lat="44.60209" lon="2.22694">
        <ele>297.624</ele>
        <time>2015-08-05T11:41:07Z</time>
      </trkpt>
      <trkpt lat="44.60117" lon="2.22717">
        <ele>288.956</ele>
        <time>2015-08-05T11:41:27Z</time>
      </trkpt>
      <trkpt lat="44.60066" lon="2.22717">
        <ele>281.188</ele>
        <time>2015-08-05T11:41:47Z</time>
      </trkpt>
      <trkpt lat="44.60027" lon="2.22731">
        <ele>275.979</ele>
        <time>2015-08-05T11:42:07Z</time>
      </trkpt>
      <trkpt lat="44.59972" lon="2.22699">
        <ele>268.855</ele>
        <time>2015-08-05T11:42:27Z</time>
      </trkpt>
      <trkpt lat="44.5991" lon="2.2269">
        <ele>264.047</ele>
        <time>2015-08-05T11:42:47Z</time>
      </trkpt>
      <trkpt lat="44.59804" lon="2.2266">
        <ele>246.568</ele>
        <time>2015-08-05T11:44:07Z</time>
      </trkpt>
      <trkpt lat="44.59714" lon="2.22625">
        <ele>232.142</ele>
        <time>2015-08-05T11:44:27Z</time>
      </trkpt>
      <trkpt lat="44.59676" lon="2.2264">
        <ele>228.826</ele>
        <time>2015-08-05T11:44:47Z</time>
      </trkpt>
      <trkpt lat="44.59657" lon="2.22665">
        <ele>221.508</ele>
        <time>2015-08-05T11:45:07Z</time>
      </trkpt>
      <trkpt lat="44.59618" lon="2.22685">
        <ele>213.272</ele>
        <time>2015-08-05T11:45:27Z</time>
      </trkpt>
      <trkpt lat="44.59583" lon="2.22672">
        <ele>209.127</ele>
        <time>2015-08-05T11:45:47Z</time>
      </trkpt>
      <trkpt lat="44.59539" lon="2.2267">
        <ele>198.987</ele>
        <time>2015-08-05T11:46:07Z</time>
      </trkpt>
      <trkpt lat="44.5952" lon="2.22658">
        <ele>197.099</ele>
        <time>2015-08-05T11:46:27Z</time>
      </trkpt>
      <trkpt lat="44.59484" lon="2.22662">
        <ele>194.411</ele>
        <time>2015-08-05T11:46:47Z</time>
      </trkpt>
      <trkpt lat="44.59473" lon="2.22656">
        <ele>193.792</ele>
        <time>2015-08-05T11:47:07Z</time>
      </trkpt>
      <trkpt lat="44.59455" lon="2.22685">
        <ele>193.638</ele>
        <time>2015-08-05T11:47:27Z</time>
      </trkpt>
      <trkpt lat="44.59366" lon="2.22725">
        <ele>191.64</ele>
        <time>2015-08-05T11:47:47Z</time>
      </trkpt>
      <trkpt lat="44.59264" lon="2.22804">
        <ele>199.358</ele>
        <time>2015-08-05T11:48:07Z</time>
      </trkpt>
      <trkpt lat="44.59208" lon="2.22814">
        <ele>200.352</ele>
        <time>2015-08-05T11:48:27Z</time>
      </trkpt>
      <trkpt lat="44.59203" lon="2.22844">
        <ele>205.917</ele>
        <time>2015-08-05T11:48:47Z</time>
      </trkpt>
      <trkpt lat="44.59188" lon="2.22868">
        <ele>207.508</ele>
        <time>2015-08-05T11:49:07Z</time>
      </trkpt>
      <trkpt lat="44.59158" lon="2.22957">
        <ele>211.371</ele>
        <time>2015-08-05T11:49:27Z</time>
      </trkpt>
      <trkpt lat="44.59123" lon="2.23035">
        <ele>213.316</ele>
        <time>2015-08-05T11:49:47Z</time>
      </trkpt>
      <trkpt lat="44.59153" lon="2.23129">
        <ele>217.046</ele>
        <time>2015-08-05T11:50:07Z</time>
      </trkpt>
      <trkpt lat="44.59113" lon="2.23184">
        <ele>216.468</ele>
        <time>2015-08-05T11:50:27Z</time>
      </trkpt>
      <trkpt lat="44.591" lon="2.23223">
        <ele>213.79</ele>
        <time>2015-08-05T11:50:47Z</time>
      </trkpt>
      <trkpt lat="44.59001" lon="2.2324">
        <ele>200.771</ele>
        <time>2015-08-05T11:51:07Z</time>
      </trkpt>
      <trkpt lat="44.58925" lon="2.23232">
        <ele>194.857</ele>
        <time>2015-08-05T11:51:27Z</time>
      </trkpt>
      <trkpt lat="44.58898" lon="2.23185">
        <ele>193.869</ele>
        <time>2015-08-05T11:51:47Z</time>
      </trkpt>
      <trkpt lat="44.58827" lon="2.2314">
        <ele>189.618</ele>
        <time>2015-08-05T11:52:07Z</time>
      </trkpt>
      <trkpt lat="44.58803" lon="2.23117">
        <ele>188.198</ele>
        <time>2015-08-05T11:52:27Z</time>
      </trkpt>
      <trkpt lat="44.58774" lon="2.23095">
        <ele>189.117</ele>
        <time>2015-08-05T11:52:47Z</time>
      </trkpt>
      <trkpt lat="44.58748" lon="2.231">
        <ele>189.308</ele>
        <time>2015-08-05T11:53:07Z</time>
      </trkpt>
      <trkpt lat="44.58725" lon="2.23004">
        <ele>185.927</ele>
        <time>2015-08-05T11:53:27Z</time>
      </trkpt>
      <trkpt lat="44.58689" lon="2.22956">
        <ele>184.282</ele>
        <time>2015-08-05T11:53:47Z</time>
      </trkpt>
      <trkpt lat="44.58522" lon="2.22861">
        <ele>188.292</ele>
        <time>2015-08-05T11:54:07Z</time>
      </trkpt>
      <trkpt lat="44.58496" lon="2.22863">
        <ele>189.784</ele>
        <time>2015-08-05T11:54:27Z</time>
      </trkpt>
      <trkpt lat="44.58473" lon="2.22888">
        <ele>193.046</ele>
        <time>2015-08-05T11:54:47Z</time>
      </trkpt>
      <trkpt lat="44.58474" lon="2.22869">
        <ele>193.417</ele>
        <time>2015-08-05T11:55:07Z</time>
      </trkpt>
      <trkpt lat="44.58487" lon="2.22834">
        <ele>192.863</ele>
        <time>2015-08-05T11:55:27Z</time>
      </trkpt>
      <trkpt lat="44.58474" lon="2.22809">
        <ele>199.295</ele>
        <time>2015-08-05T11:55:47Z</time>
      </trkpt>
      <trkpt lat="44.58462" lon="2.22765">
        <ele>212.531</ele>
        <time>2015-08-05T11:56:07Z</time>
      </trkpt>
      <trkpt lat="44.58367" lon="2.22558">
        <ele>249.561</ele>
        <time>2015-08-05T11:56:27Z</time>
      </trkpt>
      <trkpt lat="44.58323" lon="2.2247">
        <ele>261.807</ele>
        <time>2015-08-05T11:56:47Z</time>
      </trkpt>
      <trkpt lat="44.58294" lon="2.22433">
        <ele>266.508</ele>
        <time>2015-08-05T11:57:07Z</time>
      </trkpt>
      <trkpt lat="44.58268" lon="2.22446">
        <ele>271.789</ele>
        <time>2020-11-25T22:56:40Z</time>
      </trkpt>
      <trkpt lat="44.58269" lon="2.22599">
        <ele>287.314</ele>
        <time>2020-11-25T22:57:00Z</time>
      </trkpt>
      <trkpt lat="44.58212" lon="2.22677">
        <ele>301.624</ele>
        <time>2015-08-05T12:01:07Z</time>
      </trkpt>
      <trkpt lat="44.58194" lon="2.22773">
        <ele>304.276</ele>
        <time>2015-08-05T12:01:27Z</time>
      </trkpt>
      <trkpt lat="44.5815" lon="2.22846">
        <ele>311.328</ele>
        <time>2015-08-05T12:01:47Z</time>
      </trkpt>
      <trkpt lat="44.58088" lon="2.22841">
        <ele>321.819</ele>
        <time>2015-08-05T12:02:07Z</time>
      </trkpt>
      <trkpt lat="44.58054" lon="2.22857">
        <ele>325.285</ele>
        <time>2015-08-05T12:02:27Z</time>
      </trkpt>
      <trkpt lat="44.58006" lon="2.22978">
        <ele>331.577</ele>
        <time>2015-08-05T12:02:47Z</time>
      </trkpt>
      <trkpt lat="44.57987" lon="2.23042">
        <ele>330.934</ele>
        <time>2015-08-05T12:03:07Z</time>
      </trkpt>
      <trkpt lat="44.57968" lon="2.2309">
        <ele>329.455</ele>
        <time>2015-08-05T12:03:27Z</time>
      </trkpt>
      <trkpt lat="44.57893" lon="2.23201">
        <ele>328.61</ele>
        <time>2015-08-05T12:03:47Z</time>
      </trkpt>
      <trkpt lat="44.57805" lon="2.23375">
        <ele>341.508</ele>
        <time>2015-08-05T12:04:07Z</time>
      </trkpt>
      <trkpt lat="44.57787" lon="2.23451">
        <ele>345.799</ele>
        <time>2015-08-05T12:04:27Z</time>
      </trkpt>
      <trkpt lat="44.57747" lon="2.23531">
        <ele>350.484</ele>
        <time>2015-08-05T12:04:47Z</time>
      </trkpt>
      <trkpt lat="44.57693" lon="2.23685">
        <ele>348.334</ele>
        <time>2015-08-05T12:05:07Z</time>
      </trkpt>
      <trkpt lat="44.57679" lon="2.23789">
        <ele>354.456</ele>
        <time>2015-08-05T12:05:27Z</time>
      </trkpt>
      <trkpt lat="44.57678" lon="2.23873">
        <ele>350.268</ele>
        <time>2015-08-05T12:05:47Z</time>
      </trkpt>
      <trkpt lat="44.57646" lon="2.23929">
        <ele>352.999</ele>
        <time>2015-08-05T12:06:07Z</time>
      </trkpt>
      <trkpt lat="44.57634" lon="2.23967">
        <ele>353.395</ele>
        <time>2015-08-05T12:06:27Z</time>
      </trkpt>
      <trkpt lat="44.57558" lon="2.23984">
        <ele>350.097</ele>
        <time>2015-08-05T12:06:47Z</time>
      </trkpt>
      <trkpt lat="44.57498" lon="2.24024">
        <ele>345.982</ele>
        <time>2015-08-05T12:07:07Z</time>
      </trkpt>
      <trkpt lat="44.57497" lon="2.24046">
        <ele>345.343</ele>
        <time>2015-08-05T12:07:27Z</time>
      </trkpt>
      <trkpt lat="44.57512" lon="2.24051">
        <ele>344.917</ele>
        <time>2015-08-05T12:07:47Z</time>
      </trkpt>
      <trkpt lat="44.57487" lon="2.24113">
        <ele>342.108</ele>
        <time>2015-08-05T12:08:07Z</time>
      </trkpt>
      <trkpt lat="44.57393" lon="2.24237">
        <ele>332.644</ele>
        <time>2015-08-05T12:08:27Z</time>
      </trkpt>
      <trkpt lat="44.57323" lon="2.24382">
        <ele>312.819</ele>
        <time>2015-08-05T12:08:47Z</time>
      </trkpt>
      <trkpt lat="44.5734" lon="2.24451">
        <ele>305.449</ele>
        <time>2015-08-05T12:09:07Z</time>
      </trkpt>
      <trkpt lat="44.57304" lon="2.24537">
        <ele>296.361</ele>
        <time>2015-08-05T12:09:27Z</time>
      </trkpt>
      <trkpt lat="44.57264" lon="2.24558">
        <ele>293.143</ele>
        <time>2015-08-05T12:09:47Z</time>
      </trkpt>
      <trkpt lat="44.57288" lon="2.24573">
        <ele>290.224</ele>
        <time>2015-08-05T12:10:07Z</time>
      </trkpt>
      <trkpt lat="44.57209" lon="2.2459">
        <ele>284.21</ele>
        <time>2015-08-05T12:10:27Z</time>
      </trkpt>
      <trkpt lat="44.57127" lon="2.24657">
        <ele>277.242</ele>
        <time>2015-08-05T12:10:47Z</time>
      </trkpt>
      <trkpt lat="44.57048" lon="2.24688">
        <ele>280.467</ele>
        <time>2015-08-05T12:11:07Z</time>
      </trkpt>
      <trkpt lat="44.56952" lon="2.24699">
        <ele>286.081</ele>
        <time>2015-08-05T12:11:27Z</time>
      </trkpt>
      <trkpt lat="44.569" lon="2.24682">
        <ele>292.919</ele>
        <time>2015-08-05T12:11:47Z</time>
      </trkpt>
      <trkpt lat="44.56849" lon="2.24657">
        <ele>295.208</ele>
        <time>2015-08-05T12:12:07Z</time>
      </trkpt>
      <trkpt lat="44.56825" lon="2.24659">
        <ele>295.012</ele>
        <time>2015-08-05T12:12:27Z</time>
      </trkpt>
      <trkpt lat="44.5677" lon="2.24618">
        <ele>290.217</ele>
        <time>2015-08-05T12:12:47Z</time>
      </trkpt>
      <trkpt lat="44.56716" lon="2.24614">
        <ele>290.727</ele>
        <time>2015-08-05T12:13:07Z</time>
      </trkpt>
      <trkpt lat="44.56707" lon="2.24598">
        <ele>288.879</ele>
        <time>2015-08-05T12:13:27Z</time>
      </trkpt>
      <trkpt lat="44.56706" lon="2.24559">
        <ele>283.031</ele>
        <time>2015-08-05T12:13:47Z</time>
      </trkpt>
      <trkpt lat="44.56641" lon="2.24563">
        <ele>273.862</ele>
        <time>2015-08-05T12:14:07Z</time>
      </trkpt>
      <trkpt lat="44.56605" lon="2.24583">
        <ele>266.098</ele>
        <time>2015-08-05T12:14:27Z</time>
      </trkpt>
      <trkpt lat="44.5659" lon="2.24644">
        <ele>262.64</ele>
        <time>2015-08-05T12:14:47Z</time>
      </trkpt>
      <trkpt lat="44.56534" lon="2.24674">
        <ele>248.981</ele>
        <time>2015-08-05T12:15:07Z</time>
      </trkpt>
      <trkpt lat="44.56515" lon="2.24657">
        <ele>245.661</ele>
        <time>2015-08-05T12:15:27Z</time>
      </trkpt>
      <trkpt lat="44.565" lon="2.24624">
        <ele>243.017</ele>
        <time>2015-08-05T12:15:47Z</time>
      </trkpt>
      <trkpt lat="44.56462" lon="2.24605">
        <ele>233.308</ele>
        <time>2015-08-05T12:16:07Z</time>
      </trkpt>
      <trkpt lat="44.56409" lon="2.24659">
        <ele>221.714</ele>
        <time>2015-08-05T12:16:27Z</time>
      </trkpt>
      <trkpt lat="44.56407" lon="2.24698">
        <ele>221.469</ele>
        <time>2015-08-05T12:16:47Z</time>
      </trkpt>
      <trkpt lat="44.56437" lon="2.24787">
        <ele>215.399</ele>
        <time>2015-08-05T12:17:07Z</time>
      </trkpt>
      <trkpt lat="44.56432" lon="2.24834">
        <ele>212.161</ele>
        <time>2015-08-05T12:17:27Z</time>
      </trkpt>
      <trkpt lat="44.56378" lon="2.24812">
        <ele>208.643</ele>
        <time>2015-08-05T12:17:47Z</time>
      </trkpt>
      <trkpt lat="44.56375" lon="2.24915">
        <ele>207.074</ele>
        <time>2015-08-05T12:18:07Z</time>
      </trkpt>
      <trkpt lat="44.56352" lon="2.25055">
        <ele>207.77</ele>
        <time>2015-08-05T12:18:27Z</time>
      </trkpt>
      <trkpt lat="44.56365" lon="2.2508">
        <ele>209.632</ele>
        <time>2015-08-05T12:18:47Z</time>
      </trkpt>
      <trkpt lat="44.56402" lon="2.25059">
        <ele>212.431</ele>
        <time>2015-08-05T12:19:07Z</time>
      </trkpt>
      <trkpt lat="44.56435" lon="2.25078">
        <ele>215.561</ele>
        <time>2015-08-05T12:19:27Z</time>
      </trkpt>
      <trkpt lat="44.56484" lon="2.25145">
        <ele>223.307</ele>
        <time>2015-08-05T12:19:47Z</time>
      </trkpt>
      <trkpt lat="44.56508" lon="2.25156">
        <ele>223.808</ele>
        <time>2015-08-05T12:20:07Z</time>
      </trkpt>
      <trkpt lat="44.56508" lon="2.25177">
        <ele>228.469</ele>
        <time>2015-08-05T12:20:27Z</time>
      </trkpt>
      <trkpt lat="44.56489" lon="2.25179">
        <ele>230.214</ele>
        <time>2015-08-05T12:20:47Z</time>
      </trkpt>
      <trkpt lat="44.56475" lon="2.25192">
        <ele>234.294</ele>
        <time>2015-08-05T12:21:07Z</time>
      </trkpt>
      <trkpt lat="44.56433" lon="2.252">
        <ele>236.526</ele>
        <time>2015-08-05T12:21:27Z</time>
      </trkpt>
      <trkpt lat="44.56444" lon="2.25312">
        <ele>250.978</ele>
        <time>2015-08-05T12:21:47Z</time>
      </trkpt>
      <trkpt lat="44.56461" lon="2.25337">
        <ele>252.629</ele>
        <time>2015-08-05T12:22:07Z</time>
      </trkpt>
      <trkpt lat="44.56458" lon="2.25405">
        <ele>259.265</ele>
        <time>2015-08-05T12:22:27Z</time>
      </trkpt>
      <trkpt lat="44.56461" lon="2.25461">
        <ele>262.817</ele>
        <time>2015-08-05T12:22:47Z</time>
      </trkpt>
      <trkpt lat="44.56506" lon="2.25535">
        <ele>268.996</ele>
        <time>2015-08-05T12:23:07Z</time>
      </trkpt>
      <trkpt lat="44.56503" lon="2.25623">
        <ele>277.831</ele>
        <time>2015-08-05T12:23:27Z</time>
      </trkpt>
      <trkpt lat="44.56463" lon="2.25647">
        <ele>283.924</ele>
        <time>2015-08-05T12:23:47Z</time>
      </trkpt>
      <trkpt lat="44.56472" lon="2.25771">
        <ele>303.508</ele>
        <time>2015-08-05T12:24:07Z</time>
      </trkpt>
      <trkpt lat="44.56461" lon="2.25818">
        <ele>304.615</ele>
        <time>2015-08-05T12:24:27Z</time>
      </trkpt>
      <trkpt lat="44.56465" lon="2.2589">
        <ele>307.34</ele>
        <time>2015-08-05T12:24:47Z</time>
      </trkpt>
      <trkpt lat="44.56439" lon="2.26022">
        <ele>316.55</ele>
        <time>2015-08-05T12:25:07Z</time>
      </trkpt>
      <trkpt lat="44.56375" lon="2.2622">
        <ele>336.212</ele>
        <time>2015-08-05T12:25:27Z</time>
      </trkpt>
      <trkpt lat="44.56352" lon="2.26269">
        <ele>344.694</ele>
        <time>2015-08-05T12:25:47Z</time>
      </trkpt>
      <trkpt lat="44.56326" lon="2.26366">
        <ele>352.085</ele>
        <time>2015-08-05T12:26:07Z</time>
      </trkpt>
    </trkseg>
  </trk>
</gpx>